createdAt,value
2023-05-12T00:01:47.616Z,1.50
2023-05-12T00:04:16.200Z,1.30
2023-05-12T00:06:44.289Z,1.50
2023-05-12T00:09:12.291Z,1.40
2023-05-12T00:11:40.736Z,1.30
2023-05-12T00:14:09.196Z,1.30
2023-05-12T00:16:37.378Z,1.40
2023-05-12T00:19:05.815Z,1.90
2023-05-12T00:21:33.894Z,1.40
2023-05-12T00:24:01.836Z,1.50
2023-05-12T00:26:29.922Z,1.40
2023-05-12T00:28:58.200Z,1.50
2023-05-12T00:31:26.346Z,1.30
2023-05-12T00:33:54.410Z,1.30
2023-05-12T00:36:22.727Z,1.50
2023-05-12T00:38:50.926Z,1.40
2023-05-12T00:41:18.965Z,1.40
2023-05-12T00:43:46.881Z,1.40
2023-05-12T00:46:15.665Z,0.90
2023-05-12T00:48:45.034Z,1.40
2023-05-12T00:51:13.862Z,1.10
2023-05-12T00:53:49.872Z,1.50
2023-05-12T00:56:21.976Z,1.10
2023-05-12T00:58:50.111Z,1.30
2023-05-12T01:01:18.598Z,1.20
2023-05-12T01:03:48.798Z,1.00
2023-05-12T01:06:33.091Z,1.20
2023-05-12T01:09:02.025Z,1.00
2023-05-12T01:11:30.052Z,0.80
2023-05-12T01:13:58.032Z,0.90
2023-05-12T01:16:32.268Z,1.20
2023-05-12T01:19:06.072Z,1.20
2023-05-12T01:21:35.527Z,1.10
2023-05-12T01:24:09.285Z,1.10
2023-05-12T01:26:38.429Z,1.00
2023-05-12T01:29:07.830Z,1.10
2023-05-12T01:31:36.377Z,0.90
2023-05-12T01:34:04.688Z,1.40
2023-05-12T01:36:32.870Z,0.70
2023-05-12T01:39:01.051Z,0.80
2023-05-12T01:41:29.312Z,1.00
2023-05-12T01:43:57.486Z,0.70
2023-05-12T01:46:26.105Z,1.00
2023-05-12T01:48:56.390Z,1.60
2023-05-12T01:51:24.305Z,1.00
2023-05-12T01:53:52.839Z,1.00
2023-05-12T01:56:21.890Z,1.30
2023-05-12T01:58:50.429Z,1.00
2023-05-12T02:01:23.492Z,1.00
2023-05-12T02:03:51.733Z,1.00
2023-05-12T02:06:19.924Z,0.90
2023-05-12T02:08:48.642Z,1.10
2023-05-12T02:11:17.737Z,1.20
2023-05-12T02:13:45.812Z,1.00
2023-05-12T02:16:13.949Z,1.10
2023-05-12T02:18:42.280Z,1.10
2023-05-12T02:21:10.432Z,0.90
2023-05-12T02:23:38.715Z,0.90
2023-05-12T02:26:06.884Z,1.30
2023-05-12T02:28:37.520Z,0.90
2023-05-12T02:31:06.009Z,1.00
2023-05-12T02:33:34.037Z,1.00
2023-05-12T02:36:02.430Z,1.20
2023-05-12T02:38:30.620Z,1.00
2023-05-12T02:40:58.694Z,1.10
2023-05-12T02:43:27.014Z,1.00
2023-05-12T02:45:55.627Z,1.00
2023-05-12T02:48:23.728Z,0.90
2023-05-12T02:50:52.038Z,1.10
2023-05-12T02:53:20.696Z,1.20
2023-05-12T02:55:49.189Z,1.00
2023-05-12T02:58:17.395Z,1.40
2023-05-12T03:00:45.534Z,1.60
2023-05-12T03:03:13.896Z,0.90
2023-05-12T03:05:42.184Z,1.30
2023-05-12T03:08:10.360Z,0.90
2023-05-12T03:10:38.527Z,0.80
2023-05-12T03:13:06.647Z,0.80
2023-05-12T03:15:34.692Z,1.00
2023-05-12T03:18:02.984Z,1.20
2023-05-12T03:20:31.088Z,0.80
2023-05-12T03:23:00.110Z,1.50
2023-05-12T03:25:28.396Z,1.50
2023-05-12T03:27:56.456Z,1.30
2023-05-12T03:30:24.485Z,0.80
2023-05-12T03:32:52.833Z,1.00
2023-05-12T03:35:21.101Z,1.20
2023-05-12T03:37:49.934Z,0.80
2023-05-12T03:40:19.265Z,1.00
2023-05-12T03:42:48.060Z,1.00
2023-05-12T03:45:16.630Z,1.90
2023-05-12T03:47:44.922Z,1.50
2023-05-12T03:50:13.346Z,2.30
2023-05-12T03:52:41.642Z,1.60
2023-05-12T03:55:10.690Z,0.90
2023-05-12T03:57:39.179Z,1.30
2023-05-12T04:00:07.992Z,1.00
2023-05-12T04:02:44.626Z,1.00
2023-05-12T04:05:14.539Z,1.10
2023-05-12T04:07:43.114Z,1.10
2023-05-12T04:10:11.398Z,1.30
2023-05-12T04:12:39.374Z,1.30
2023-05-12T04:15:09.131Z,1.20
2023-05-12T04:17:37.191Z,1.50
2023-05-12T04:20:06.240Z,1.30
2023-05-12T04:22:34.529Z,1.00
2023-05-12T04:25:02.592Z,0.80
2023-05-12T04:27:30.529Z,1.20
2023-05-12T04:29:58.731Z,1.20
2023-05-12T04:32:26.738Z,1.10
2023-05-12T04:34:56.701Z,1.30
2023-05-12T04:37:24.921Z,1.50
2023-05-12T04:39:53.468Z,1.70
2023-05-12T04:42:21.960Z,1.60
2023-05-12T04:44:50.130Z,1.50
2023-05-12T04:47:18.153Z,1.20
2023-05-12T04:49:46.273Z,1.50
2023-05-12T04:52:15.885Z,1.30
2023-05-12T04:54:44.410Z,1.30
2023-05-12T04:57:12.981Z,1.40
2023-05-12T04:59:42.604Z,1.30
2023-05-12T05:02:11.997Z,1.60
2023-05-12T05:04:40.640Z,1.40
2023-05-12T05:07:09.954Z,1.00
2023-05-12T05:09:38.113Z,1.30
2023-05-12T05:12:07.354Z,1.60
2023-05-12T05:14:35.607Z,1.50
2023-05-12T05:17:03.847Z,1.60
2023-05-12T05:19:44.550Z,1.40
2023-05-12T05:22:20.096Z,1.40
2023-05-12T05:24:48.801Z,1.00
2023-05-12T05:27:17.069Z,1.30
2023-05-12T05:29:45.224Z,1.10
2023-05-12T05:32:13.280Z,1.80
2023-05-12T05:34:41.605Z,1.40
2023-05-12T05:37:09.802Z,1.50
2023-05-12T05:39:38.391Z,1.40
2023-05-12T05:42:07.108Z,1.50
2023-05-12T05:44:36.250Z,1.50
2023-05-12T05:47:05.745Z,1.30
2023-05-12T05:49:33.801Z,1.10
2023-05-12T05:52:02.360Z,1.70
2023-05-12T05:54:30.539Z,1.30
2023-05-12T05:57:02.444Z,1.10
2023-05-12T06:01:59.422Z,1.00
2023-05-12T06:04:28.068Z,1.60
2023-05-12T06:06:56.418Z,1.40
2023-05-12T06:09:24.491Z,1.30
2023-05-12T06:11:52.768Z,0.90
2023-05-12T06:14:20.841Z,0.80
2023-05-12T06:16:49.240Z,1.20
2023-05-12T06:19:17.496Z,1.20
2023-05-12T06:21:45.482Z,1.20
2023-05-12T06:24:14.037Z,1.10
2023-05-12T06:26:43.109Z,1.20
2023-05-12T06:29:11.113Z,1.40
2023-05-12T06:31:39.132Z,1.60
2023-05-12T06:34:07.119Z,1.50
2023-05-12T06:36:35.065Z,1.10
2023-05-12T06:39:03.103Z,1.20
2023-05-12T06:41:32.395Z,1.20
2023-05-12T06:44:02.727Z,1.60
2023-05-12T06:46:30.726Z,1.50
2023-05-12T06:49:00.489Z,1.40
2023-05-12T06:51:28.523Z,1.40
2023-05-12T06:53:56.536Z,1.80
2023-05-12T06:56:24.821Z,2.30
2023-05-12T06:58:54.633Z,1.90
2023-05-12T07:01:22.820Z,1.80
2023-05-12T07:03:51.721Z,1.90
2023-05-12T07:06:19.931Z,1.80
2023-05-12T07:08:48.759Z,2.00
2023-05-12T07:11:22.893Z,1.90
2023-05-12T07:13:51.869Z,2.00
2023-05-12T07:16:20.026Z,1.90
2023-05-12T07:18:48.470Z,1.70
2023-05-12T07:21:16.801Z,2.10
2023-05-12T07:23:45.179Z,2.30
2023-05-12T07:26:13.246Z,3.00
2023-05-12T07:28:41.303Z,2.70
2023-05-12T07:31:09.477Z,3.30
2023-05-12T07:33:37.425Z,3.10
2023-05-12T07:36:06.147Z,2.60
2023-05-12T07:38:34.224Z,3.30
2023-05-12T07:41:02.299Z,2.40
2023-05-12T07:43:30.476Z,3.10
2023-05-12T07:46:00.938Z,2.40
2023-05-12T07:48:29.270Z,3.90
2023-05-12T07:50:57.857Z,2.40
2023-05-12T07:53:25.816Z,2.50
2023-05-12T07:55:53.763Z,2.50
2023-05-12T07:58:21.749Z,3.10
2023-05-12T08:00:49.848Z,2.80
2023-05-12T08:03:18.293Z,2.40
2023-05-12T08:05:46.468Z,2.20
2023-05-12T08:08:16.887Z,2.20
2023-05-12T08:10:44.972Z,2.30
2023-05-12T08:13:13.009Z,2.60
2023-05-12T08:15:41.233Z,1.70
2023-05-12T08:18:09.760Z,2.00
2023-05-12T08:20:37.988Z,2.10
2023-05-12T08:23:06.020Z,1.90
2023-05-12T08:25:36.158Z,2.50
2023-05-12T08:28:04.803Z,2.70
2023-05-12T08:30:33.070Z,2.80
2023-05-12T08:33:01.829Z,3.20
2023-05-12T08:35:30.530Z,2.30
2023-05-12T08:37:59.532Z,2.00
2023-05-12T08:40:31.094Z,2.30
2023-05-12T08:43:25.144Z,2.00
2023-05-12T08:46:00.261Z,2.10
2023-05-12T08:48:30.201Z,1.40
2023-05-12T08:50:59.542Z,1.70
2023-05-12T08:53:29.127Z,2.00
2023-05-12T08:58:49.510Z,2.00
2023-05-12T09:01:18.402Z,2.10
2023-05-12T09:03:46.734Z,2.60
2023-05-12T09:06:15.128Z,2.30
2023-05-12T09:08:44.278Z,1.20
2023-05-12T09:11:15.006Z,1.30
2023-05-12T09:13:51.164Z,2.00
2023-05-12T09:16:25.237Z,1.50
2023-05-12T09:18:58.963Z,1.90
2023-05-12T09:21:27.964Z,1.70
2023-05-12T09:24:07.322Z,1.30
2023-05-12T09:26:49.304Z,1.70
2023-05-12T09:29:30.825Z,1.50
2023-05-12T09:32:04.397Z,1.70
2023-05-12T09:34:41.395Z,1.10
2023-05-12T09:37:10.023Z,1.40
2023-05-12T09:39:38.445Z,1.80
2023-05-12T09:42:12.237Z,2.60
2023-05-12T09:44:41.431Z,2.00
2023-05-12T09:47:10.608Z,1.90
2023-05-12T09:49:38.936Z,1.40
2023-05-12T09:52:06.881Z,1.80
2023-05-12T09:54:35.050Z,1.70
2023-05-12T09:57:05.273Z,1.70
2023-05-12T09:59:36.360Z,1.80
2023-05-12T10:02:09.088Z,1.80
2023-05-12T10:05:00.465Z,1.40
2023-05-12T10:07:29.852Z,1.80
2023-05-12T10:10:01.177Z,1.70
2023-05-12T10:12:29.746Z,1.70
2023-05-12T10:14:59.664Z,1.90
2023-05-12T10:17:29.172Z,2.80
2023-05-12T10:19:58.326Z,2.70
2023-05-12T10:22:28.179Z,2.30
2023-05-12T10:24:57.664Z,2.40
2023-05-12T10:27:26.828Z,2.30
2023-05-12T10:29:55.831Z,1.80
2023-05-12T10:32:23.866Z,2.10
2023-05-12T10:34:52.223Z,1.80
2023-05-12T10:37:23.393Z,1.90
2023-05-12T10:39:52.950Z,2.00
2023-05-12T10:42:25.693Z,1.40
2023-05-12T10:44:56.597Z,1.40
2023-05-12T10:47:37.531Z,1.80
2023-05-12T10:50:06.556Z,1.50
2023-05-12T10:52:34.631Z,1.70
2023-05-12T10:55:04.309Z,1.70
2023-05-12T10:57:33.657Z,1.20
2023-05-12T11:00:03.547Z,1.60
2023-05-12T11:02:34.493Z,1.90
2023-05-12T11:05:13.092Z,1.30
2023-05-12T11:07:47.947Z,1.20
2023-05-12T11:10:17.552Z,1.30
2023-05-12T11:12:46.276Z,1.50
2023-05-12T11:15:17.293Z,1.70
2023-05-12T11:17:46.746Z,1.70
2023-05-12T11:20:25.198Z,1.80
2023-05-12T11:22:54.708Z,1.40
2023-05-12T11:25:22.973Z,1.70
2023-05-12T11:27:51.664Z,1.70
2023-05-12T11:30:20.077Z,2.40
2023-05-12T11:32:48.496Z,1.60
2023-05-12T11:35:19.959Z,2.10
2023-05-12T11:37:48.259Z,1.80
2023-05-12T11:40:17.217Z,2.00
2023-05-12T11:42:48.939Z,2.20
2023-05-12T11:45:29.062Z,2.00
2023-05-12T11:48:14.235Z,2.60
2023-05-12T11:50:49.002Z,2.50
2023-05-12T11:53:18.949Z,2.50
2023-05-12T11:55:57.082Z,2.30
2023-05-12T11:58:29.316Z,2.30
2023-05-12T12:00:57.750Z,1.70
2023-05-12T12:03:25.939Z,2.20
2023-05-12T12:06:00.159Z,2.20
2023-05-12T12:08:28.934Z,2.20
2023-05-12T12:10:57.290Z,1.90
2023-05-12T12:13:26.413Z,2.20
2023-05-12T12:15:54.494Z,2.30
2023-05-12T12:18:22.655Z,2.30
2023-05-12T12:20:50.771Z,3.40
2023-05-12T12:23:18.776Z,3.60
2023-05-12T12:25:46.835Z,3.40
2023-05-12T12:28:14.915Z,3.00
2023-05-12T12:30:43.344Z,3.20
2023-05-12T12:33:11.364Z,3.30
2023-05-12T12:35:39.543Z,3.40
2023-05-12T12:38:07.732Z,3.90
2023-05-12T12:40:35.700Z,4.40
2023-05-12T12:43:04.061Z,3.80
2023-05-12T12:45:32.235Z,4.40
2023-05-12T12:48:00.242Z,3.60
2023-05-12T12:50:28.997Z,4.00
2023-05-12T12:52:56.960Z,4.80
2023-05-12T12:55:26.058Z,5.30
2023-05-12T12:57:54.036Z,5.00
2023-05-12T13:00:23.796Z,5.10
2023-05-12T13:02:52.140Z,6.00
2023-05-12T13:05:20.612Z,5.10
2023-05-12T13:07:48.964Z,5.40
2023-05-12T13:10:17.252Z,5.30
2023-05-12T13:12:45.249Z,5.80
2023-05-12T13:15:13.299Z,6.60
2023-05-12T13:17:41.416Z,7.70
2023-05-12T13:20:10.054Z,7.50
2023-05-12T13:22:38.128Z,6.40
2023-05-12T13:25:08.226Z,6.70
2023-05-12T13:27:36.624Z,6.10
2023-05-12T13:30:07.329Z,6.70
2023-05-12T13:32:35.719Z,6.20
2023-05-12T13:35:04.437Z,7.20
2023-05-12T13:37:32.907Z,6.30
2023-05-12T13:40:00.915Z,8.10
2023-05-12T13:42:28.939Z,7.80
2023-05-12T13:44:56.952Z,6.00
2023-05-12T13:47:25.088Z,6.20
2023-05-12T13:49:53.260Z,6.00
2023-05-12T13:52:21.204Z,5.40
2023-05-12T13:54:49.353Z,5.00
2023-05-12T13:57:17.588Z,4.10
2023-05-12T13:59:45.859Z,4.00
2023-05-12T14:02:14.526Z,4.50
2023-05-12T14:04:42.845Z,3.20
2023-05-12T14:07:10.889Z,3.50
2023-05-12T14:09:38.864Z,4.10
2023-05-12T14:12:08.129Z,3.40
2023-05-12T14:14:36.539Z,3.90
2023-05-12T14:17:05.218Z,4.00
2023-05-12T14:19:33.397Z,4.30
2023-05-12T14:22:03.201Z,4.50
2023-05-12T14:24:32.526Z,4.60
2023-05-12T14:27:00.790Z,4.20
2023-05-12T14:29:28.748Z,4.30
2023-05-12T14:31:57.209Z,3.60
2023-05-12T14:34:25.511Z,4.00
2023-05-12T14:36:54.194Z,5.50
2023-05-12T14:39:22.163Z,4.60
2023-05-12T14:41:50.118Z,5.00
2023-05-12T14:44:18.026Z,3.80
2023-05-12T14:46:46.478Z,4.90
2023-05-12T14:49:14.594Z,4.40
2023-05-12T14:51:43.657Z,6.20
2023-05-12T14:54:22.174Z,4.80
2023-05-12T14:56:53.217Z,5.00
2023-05-12T14:59:21.778Z,3.60
2023-05-12T15:01:50.231Z,4.30
2023-05-12T15:04:18.309Z,4.20
2023-05-12T15:06:46.725Z,5.20
2023-05-12T15:09:14.648Z,5.30
2023-05-12T15:11:45.437Z,5.20
2023-05-12T15:14:13.710Z,4.80
2023-05-12T15:16:41.971Z,5.20
2023-05-12T15:19:10.508Z,5.70
2023-05-12T15:21:38.841Z,5.80
2023-05-12T15:24:07.038Z,5.50
2023-05-12T15:26:36.727Z,4.90
2023-05-12T15:29:05.528Z,5.30
2023-05-12T15:31:33.540Z,4.50
2023-05-12T15:34:01.899Z,5.70
2023-05-12T15:36:31.118Z,5.70
2023-05-12T15:38:59.691Z,6.80
2023-05-12T15:41:27.817Z,5.90
2023-05-12T15:43:56.010Z,6.60
2023-05-12T15:46:24.559Z,7.40
2023-05-12T15:48:52.850Z,5.10
2023-05-12T15:51:21.024Z,6.00
2023-05-12T15:53:50.941Z,4.90
2023-05-12T15:56:19.115Z,7.00
2023-05-12T15:58:47.289Z,6.70
2023-05-12T16:01:15.474Z,6.30
2023-05-12T16:03:43.630Z,5.90
2023-05-12T16:06:11.984Z,6.20
2023-05-12T16:08:39.891Z,5.80
2023-05-12T16:11:07.923Z,6.30
2023-05-12T16:13:36.136Z,7.20
2023-05-12T16:16:05.479Z,7.60
2023-05-12T16:18:33.850Z,6.60
2023-05-12T16:21:02.913Z,8.50
2023-05-12T16:23:31.199Z,8.30
2023-05-12T16:25:59.493Z,6.60
2023-05-12T16:28:28.169Z,9.50
2023-05-12T16:30:56.727Z,6.90
2023-05-12T16:33:24.916Z,7.00
2023-05-12T16:35:52.967Z,6.80
2023-05-12T16:38:21.341Z,6.60
2023-05-12T16:40:49.516Z,7.20
2023-05-12T16:43:17.692Z,7.40
2023-05-12T16:45:45.798Z,6.90
2023-05-12T16:48:13.864Z,11.50
2023-05-12T16:50:41.909Z,8.30
2023-05-12T16:53:09.985Z,7.60
2023-05-12T16:55:37.923Z,6.20
2023-05-12T16:58:07.286Z,7.20
2023-05-12T17:00:35.276Z,6.20
2023-05-12T17:03:04.906Z,11.80
2023-05-12T17:05:34.035Z,10.40
2023-05-12T17:08:02.306Z,6.60
2023-05-12T17:10:30.678Z,6.60
2023-05-12T17:12:58.754Z,6.40
2023-05-12T17:15:27.486Z,6.40
2023-05-12T17:17:55.826Z,6.50
2023-05-12T17:20:24.372Z,10.20
2023-05-12T17:22:52.369Z,12.80
2023-05-12T17:25:22.285Z,8.40
2023-05-12T17:27:50.869Z,7.10
2023-05-12T17:30:18.832Z,6.30
2023-05-12T17:32:47.299Z,6.40
2023-05-12T17:35:15.500Z,6.40
2023-05-12T17:37:43.610Z,6.10
2023-05-12T17:40:16.658Z,7.30
2023-05-12T17:42:45.347Z,8.80
2023-05-12T17:45:16.380Z,6.50
2023-05-12T17:50:15.225Z,5.00
2023-05-12T17:52:43.848Z,6.60
2023-05-12T17:55:12.059Z,6.80
2023-05-12T17:57:40.325Z,5.00
2023-05-12T18:00:12.812Z,5.50
2023-05-12T18:02:45.044Z,4.90
2023-05-12T18:05:13.246Z,5.00
2023-05-12T18:07:41.427Z,4.00
2023-05-12T18:10:11.273Z,5.00
2023-05-12T18:12:39.522Z,4.50
2023-05-12T18:15:08.926Z,3.50
2023-05-12T18:17:37.266Z,3.40
2023-05-12T18:20:06.849Z,4.00
2023-05-12T18:22:35.083Z,5.20
2023-05-12T18:25:03.151Z,3.50
2023-05-12T18:27:31.144Z,2.90
2023-05-12T18:29:59.095Z,3.70
2023-05-12T18:32:27.478Z,2.10
2023-05-12T18:34:55.838Z,2.40
2023-05-12T18:37:24.223Z,2.20
2023-05-12T18:39:54.477Z,2.20
2023-05-12T18:42:22.637Z,1.80
2023-05-12T18:44:50.582Z,3.30
2023-05-12T18:47:18.962Z,5.60
2023-05-12T18:49:47.133Z,2.50
2023-05-12T18:52:15.073Z,5.00
2023-05-12T18:54:44.296Z,2.50
2023-05-12T18:57:12.470Z,3.30
2023-05-12T18:59:40.352Z,5.20
2023-05-12T19:02:08.524Z,2.80
2023-05-12T19:04:36.799Z,6.80
2023-05-12T19:07:06.810Z,2.80
2023-05-12T19:09:35.596Z,3.50
2023-05-12T19:12:05.963Z,4.50
2023-05-12T19:14:34.595Z,2.20
2023-05-12T19:17:02.513Z,3.50
2023-05-12T19:19:31.160Z,2.30
2023-05-12T19:21:59.134Z,1.80
2023-05-12T19:24:27.264Z,2.40
2023-05-12T19:26:55.944Z,2.60
2023-05-12T19:29:24.066Z,3.70
2023-05-12T19:31:53.249Z,2.80
2023-05-12T19:34:21.743Z,3.40
2023-05-12T19:36:51.948Z,3.30
2023-05-12T19:39:20.054Z,2.20
2023-05-12T19:41:48.211Z,1.90
2023-05-12T19:44:16.283Z,2.50
2023-05-12T19:46:46.003Z,3.50
2023-05-12T19:49:14.900Z,3.20
2023-05-12T19:51:42.982Z,2.60
2023-05-12T19:54:11.001Z,3.40
2023-05-12T19:56:39.103Z,2.30
2023-05-12T19:59:07.038Z,3.10
2023-05-12T20:01:35.103Z,3.60
2023-05-12T20:04:03.431Z,3.50
2023-05-12T20:06:31.396Z,3.20
2023-05-12T20:08:59.559Z,3.60
2023-05-12T20:11:27.628Z,3.60
2023-05-12T20:13:55.916Z,3.20
2023-05-12T20:16:23.993Z,3.60
2023-05-12T20:18:52.585Z,4.20
2023-05-12T20:21:20.940Z,3.80
2023-05-12T20:23:49.014Z,3.70
2023-05-12T20:26:17.185Z,4.80
2023-05-12T20:28:45.337Z,4.90
2023-05-12T20:31:13.673Z,3.90
2023-05-12T20:33:42.121Z,4.30
2023-05-12T20:36:10.303Z,4.60
2023-05-12T20:38:38.360Z,5.10
2023-05-12T20:41:07.972Z,4.10
2023-05-12T20:43:36.143Z,3.50
2023-05-12T20:46:05.104Z,3.70
2023-05-12T20:48:33.617Z,3.80
2023-05-12T20:51:10.781Z,5.00
2023-05-12T20:53:39.492Z,5.40
2023-05-12T20:56:08.483Z,5.80
2023-05-12T20:58:36.820Z,4.60
2023-05-12T21:01:05.081Z,5.60
2023-05-12T21:03:34.005Z,5.40
2023-05-12T21:06:02.824Z,4.90
2023-05-12T21:08:31.266Z,5.20
2023-05-12T21:11:00.194Z,4.40
2023-05-12T21:13:28.126Z,4.80
2023-05-12T21:15:56.640Z,3.20
2023-05-12T21:18:24.636Z,4.20
2023-05-12T21:20:52.780Z,3.80
2023-05-12T21:23:20.761Z,3.90
2023-05-12T21:25:49.308Z,4.30
2023-05-12T21:28:17.719Z,4.90
2023-05-12T21:30:46.095Z,5.40
2023-05-12T21:33:14.673Z,4.40
2023-05-12T21:35:42.649Z,4.70
2023-05-12T21:38:10.714Z,4.50
2023-05-12T21:40:38.900Z,4.70
2023-05-12T21:43:07.089Z,4.50
2023-05-12T21:45:35.084Z,4.00
2023-05-12T21:48:03.319Z,4.60
2023-05-12T21:50:31.301Z,4.60
2023-05-12T21:52:59.449Z,4.40
2023-05-12T21:55:27.625Z,3.80
2023-05-12T21:57:55.541Z,3.90
2023-05-12T22:00:23.742Z,3.50
2023-05-12T22:02:52.135Z,3.10
2023-05-12T22:05:20.356Z,2.90
2023-05-12T22:07:48.502Z,3.20
2023-05-12T22:10:16.883Z,2.80
2023-05-12T22:12:46.077Z,3.20
2023-05-12T22:15:14.297Z,3.10
2023-05-12T22:17:42.333Z,3.00
2023-05-12T22:20:11.263Z,3.30
2023-05-12T22:22:39.284Z,2.80
2023-05-12T22:25:08.504Z,3.00
2023-05-12T22:27:37.492Z,3.10
2023-05-12T22:30:06.570Z,3.10
2023-05-12T22:32:34.557Z,3.50
2023-05-12T22:35:02.936Z,3.20
2023-05-12T22:37:30.909Z,2.90
2023-05-12T22:39:58.903Z,3.20
2023-05-12T22:42:26.929Z,3.10
2023-05-12T22:44:54.897Z,3.50
2023-05-12T22:47:23.074Z,3.90
2023-05-12T22:49:51.144Z,3.20
2023-05-12T22:52:19.053Z,4.40
2023-05-12T22:54:46.979Z,4.70
2023-05-12T22:57:15.256Z,5.40
2023-05-12T22:59:43.201Z,4.70
2023-05-12T23:02:11.401Z,5.30
2023-05-12T23:04:39.574Z,6.10
2023-05-12T23:07:09.167Z,6.00
2023-05-12T23:09:37.469Z,5.40
2023-05-12T23:12:06.043Z,7.40
2023-05-12T23:14:34.071Z,6.60
2023-05-12T23:17:02.121Z,6.60
2023-05-12T23:19:30.157Z,7.00
2023-05-12T23:21:58.227Z,6.90
2023-05-12T23:24:26.146Z,6.80
2023-05-12T23:26:54.310Z,5.70
2023-05-12T23:29:22.260Z,7.40
2023-05-12T23:31:50.498Z,7.40
2023-05-12T23:34:18.437Z,7.80
2023-05-12T23:36:46.853Z,7.60
2023-05-12T23:39:14.780Z,6.70
2023-05-12T23:41:42.897Z,7.50
2023-05-12T23:44:11.408Z,8.40
2023-05-12T23:46:39.702Z,7.30
2023-05-12T23:49:07.851Z,8.90
2023-05-12T23:51:35.903Z,7.40
2023-05-12T23:54:03.881Z,7.80
2023-05-12T23:56:31.940Z,8.60
2023-05-12T23:58:59.910Z,8.20
